Tooele, Utah
Current Conditions -  °F | °C
As of 10:53 AM on Saturday 25 Oct 2014 (Local Time) from KSLC Reporting Station
Clear Clear  
Wind Chill: 70°   Ceiling: Unl
Heat Index: 70°   Visibility: 10mi
Dew Point: 31°   Wind: 15mph
Humidity: 24%   Direction: 170°S
Pressure: 30.06"   Gusts: NA
Location:  40.53°N, 112.29°W
Report Text: KSLC 251653Z 17013KT 10SM CLR 21/M01 A3006 RMK AO2 SLP142 T02111006
Loading
Personal Weather Stations






























Interactive Weather Map
Tropical Storm Tracking
New forecast layout! Learn more

10-Day Weather Forecast

Advertisements
Track Severe Weather on mobile